Time;durP1;ratioP1;P1;durP2;ratioP2;P2;SDS_P1;SDS_P2;PMS_P1;PMS_P2;Temp;Humidity;BMP_temperature;BMP_pressure;BME280_temperature;BME280_humidity;BME280_pressure;Samples;Min_cycle;Max_cycle;Signal;HPM_P1;HPM_P2
2024/01/26 00:01:47;;;;;;;4.87;4.07;;;;;;;19.08;46.20;98467.75;5049204;28;20220;-25
2024/01/26 00:04:13;;;;;;;4.23;3.80;;;;;;;19.08;46.21;98466.88;5053572;28;20197;-25
2024/01/26 00:06:40;;;;;;;4.43;3.70;;;;;;;19.08;46.18;98465.19;5053037;28;20221;-25
2024/01/26 00:09:13;;;;;;;5.53;4.03;;;;;;;19.08;46.19;98470.31;5047187;28;20232;-26
2024/01/26 00:11:39;;;;;;;6.23;3.73;;;;;;;18.94;46.20;98447.41;5048587;28;20198;-25
2024/01/26 00:14:07;;;;;;;8.80;4.13;;;;;;;19.09;46.00;98473.69;5048337;28;20305;-27
2024/01/26 00:16:35;;;;;;;5.43;3.93;;;;;;;19.09;46.37;98477.13;5051129;28;20227;-25
2024/01/26 00:19:03;;;;;;;4.97;3.60;;;;;;;19.10;46.17;98476.34;5052210;28;20331;-25
2024/01/26 00:21:30;;;;;;;4.73;3.80;;;;;;;19.02;46.10;98457.22;5058465;28;20329;-25
2024/01/26 00:23:57;;;;;;;4.27;3.50;;;;;;;19.12;46.01;98479.84;5046718;28;20663;-27
2024/01/26 00:26:23;;;;;;;4.27;3.40;;;;;;;19.11;46.28;98484.88;5051311;28;20233;-25
2024/01/26 00:28:51;;;;;;;4.40;4.00;;;;;;;19.11;46.19;98484.88;5052110;28;20227;-25
2024/01/26 00:31:18;;;;;;;4.30;3.80;;;;;;;19.10;46.20;98481.44;5038141;28;20232;-25
2024/01/26 00:33:45;;;;;;;5.43;3.87;;;;;;;19.09;46.15;98476.25;5063131;28;20296;-25
2024/01/26 00:36:12;;;;;;;4.30;3.47;;;;;;;19.09;46.09;98476.25;5053929;28;20236;-25
2024/01/26 00:38:39;;;;;;;4.23;3.37;;;;;;;19.09;46.37;98477.13;5056361;28;20629;-25
2024/01/26 00:41:06;;;;;;;4.50;3.67;;;;;;;19.09;46.12;98473.69;5050952;28;20229;-27
2024/01/26 00:43:33;;;;;;;5.37;3.60;;;;;;;19.08;46.13;98472.84;5054391;28;20258;-25
2024/01/26 00:45:59;;;;;;;4.40;3.73;;;;;;;19.09;46.01;98468.59;5056714;28;20259;-26
2024/01/26 00:48:26;;;;;;;4.07;3.17;;;;;;;19.08;46.37;98467.75;5056332;28;20201;-25
2024/01/26 00:50:54;;;;;;;5.47;3.57;;;;;;;19.09;46.25;98458.41;5059757;28;20324;-25
2024/01/26 00:53:21;;;;;;;4.20;3.07;;;;;;;19.10;46.19;98450.84;5049777;28;20283;-25
2024/01/26 00:55:48;;;;;;;4.40;3.50;;;;;;;19.10;46.27;98455.94;5053744;28;20216;-28
2024/01/26 00:58:15;;;;;;;3.93;3.47;;;;;;;19.11;46.19;98461.94;5051958;28;20212;-25
2024/01/26 01:00:41;;;;;;;4.13;3.70;;;;;;;19.12;46.23;98458.56;5053602;28;20201;-25
2024/01/26 01:03:08;;;;;;;4.33;3.87;;;;;;;19.11;46.27;98460.28;5050920;28;20307;-26
2024/01/26 01:05:35;;;;;;;5.60;3.80;;;;;;;19.11;46.26;98460.28;5058118;28;20231;-26
2024/01/26 01:08:02;;;;;;;3.50;3.20;;;;;;;19.10;46.22;98461.03;5053811;28;20286;-25
2024/01/26 01:10:28;;;;;;;4.63;3.50;;;;;;;19.09;46.28;98449.09;5057541;28;20204;-25
2024/01/26 01:12:55;;;;;;;4.30;3.67;;;;;;;19.10;46.23;98457.63;5046589;28;20240;-25
2024/01/26 01:15:23;;;;;;;3.40;3.07;;;;;;;19.09;45.73;98450.78;5048795;28;20294;-25
2024/01/26 01:17:50;;;;;;;5.43;3.67;;;;;;;19.09;46.17;98454.22;5048221;28;20197;-25
2024/01/26 01:20:16;;;;;;;3.67;3.20;;;;;;;19.09;46.31;98446.56;5051202;28;20197;-25
2024/01/26 01:22:47;;;;;;;4.90;3.60;;;;;;;19.09;46.38;98451.66;5047202;28;20212;-26
2024/01/26 01:25:13;;;;;;;3.83;3.43;;;;;;;19.10;46.61;98455.09;5054600;28;20224;-25
2024/01/26 01:27:40;;;;;;;4.00;3.60;;;;;;;19.11;46.22;98456.84;5057418;28;20263;-25
2024/01/26 01:30:07;;;;;;;3.50;3.20;;;;;;;19.11;46.30;98454.28;5050242;28;20258;-25
2024/01/26 01:32:34;;;;;;;3.90;3.40;;;;;;;19.11;46.21;98455.19;5049954;28;20220;-26
2024/01/26 01:35:01;;;;;;;4.20;3.40;;;;;;;19.12;46.34;98462.00;5047100;28;20234;-25
2024/01/26 01:37:28;;;;;;;4.07;3.40;;;;;;;19.12;46.23;98458.56;5049508;28;20255;-27
2024/01/26 01:39:54;;;;;;;3.83;3.47;;;;;;;19.13;45.94;98455.25;5042369;28;20205;-25
2024/01/26 01:42:21;;;;;;;4.27;3.60;;;;;;;19.12;46.04;98450.94;5051416;28;20213;-25
2024/01/26 01:44:47;;;;;;;4.10;3.53;;;;;;;19.11;46.20;98441.53;5053790;28;20261;-25
2024/01/26 01:47:14;;;;;;;3.57;3.27;;;;;;;19.11;46.35;98439.88;5051748;28;20239;-26
2024/01/26 01:49:42;;;;;;;4.27;3.50;;;;;;;19.10;46.28;98439.81;5047638;28;20296;-25
2024/01/26 01:52:18;;;;;;;4.03;3.40;;;;;;;19.10;45.99;98447.44;5053184;28;20737;-31
2024/01/26 01:54:45;;;;;;;5.03;3.43;;;;;;;19.10;46.18;98448.31;5035686;28;20223;-25
2024/01/26 01:57:12;;;;;;;3.83;3.23;;;;;;;19.10;46.34;98442.34;5047363;28;20639;-26
2024/01/26 01:59:39;;;;;;;3.70;3.27;;;;;;;19.09;46.17;98441.47;5058624;28;20200;-31
2024/01/26 02:02:05;;;;;;;3.53;3.20;;;;;;;19.11;46.12;98446.66;5050765;28;20324;-25
2024/01/26 02:04:32;;;;;;;3.87;3.17;;;;;;;19.11;46.18;98450.09;5049384;28;20201;-25
2024/01/26 02:06:59;;;;;;;3.63;3.00;;;;;;;19.13;46.34;98452.72;5041255;28;20210;-34
2024/01/26 02:09:26;;;;;;;3.43;3.13;;;;;;;19.11;46.24;98447.53;5054558;28;20622;-25
2024/01/26 02:11:53;;;;;;;3.80;3.27;;;;;;;19.13;46.18;98443.38;5053076;28;20225;-26
2024/01/26 02:14:20;;;;;;;4.07;3.63;;;;;;;19.12;46.30;98444.19;5051639;28;20212;-25
2024/01/26 02:16:52;;;;;;;3.50;3.20;;;;;;;19.14;46.21;98450.25;5050922;28;20260;-25
2024/01/26 02:19:20;;;;;;;3.80;3.40;;;;;;;19.13;46.24;98445.91;5056741;28;20200;-26
2024/01/26 02:21:48;;;;;;;3.90;3.43;;;;;;;19.13;46.35;98448.47;5050262;28;20224;-26
2024/01/26 02:24:14;;;;;;;3.67;3.27;;;;;;;19.12;46.18;98443.28;5056193;28;20208;-25
2024/01/26 02:26:41;;;;;;;4.07;3.27;;;;;;;19.11;46.21;98441.53;5045437;28;20268;-25
2024/01/26 02:29:08;;;;;;;3.80;3.40;;;;;;;19.10;46.38;98445.75;5043998;28;20201;-26
2024/01/26 02:31:34;;;;;;;3.60;3.30;;;;;;;19.11;46.20;98439.88;5053583;28;20198;-26
2024/01/26 02:34:01;;;;;;;5.13;3.57;;;;;;;19.11;45.99;98437.34;5047298;28;20299;-25
2024/01/26 02:36:28;;;;;;;3.50;2.93;;;;;;;19.10;46.13;98435.56;5054177;28;20231;-25
2024/01/26 02:38:55;;;;;;;3.97;3.23;;;;;;;19.11;46.22;98437.34;5054382;28;20256;-25
2024/01/26 02:41:21;;;;;;;3.30;3.00;;;;;;;19.12;46.19;98436.53;5053485;28;20208;-25
2024/01/26 02:43:49;;;;;;;4.47;3.50;;;;;;;19.13;46.32;98445.06;5054197;28;20258;-31
2024/01/26 02:46:15;;;;;;;3.50;3.00;;;;;;;19.14;46.22;98457.00;5047340;28;20698;-25
2024/01/26 02:48:42;;;;;;;3.70;3.27;;;;;;;19.13;46.50;98451.03;5054820;28;20625;-25
2024/01/26 02:51:08;;;;;;;3.37;3.07;;;;;;;19.14;46.14;98446.81;5055741;28;20205;-26
2024/01/26 02:53:42;;;;;;;3.47;3.17;;;;;;;19.13;46.20;98445.91;5052456;28;20573;-26
2024/01/26 02:56:08;;;;;;;4.03;3.00;;;;;;;19.14;46.35;98441.72;5056503;28;20597;-28
2024/01/26 02:58:36;;;;;;;3.63;3.03;;;;;;;19.13;46.32;98442.53;5053733;28;20204;-30
2024/01/26 03:01:02;;;;;;;3.60;3.30;;;;;;;19.13;46.20;98447.63;5063990;28;20208;-25
2024/01/26 03:03:29;;;;;;;3.57;3.07;;;;;;;19.12;46.35;98438.19;5054668;28;20224;-28
2024/01/26 03:05:55;;;;;;;3.47;3.10;;;;;;;19.12;46.30;98428.00;5053116;28;20225;-26
2024/01/26 03:08:22;;;;;;;3.43;3.10;;;;;;;19.11;46.31;98437.34;5052254;28;20209;-25
2024/01/26 03:10:50;;;;;;;3.57;3.03;;;;;;;19.12;46.04;98438.19;5056407;28;20668;-25
2024/01/26 03:13:18;;;;;;;3.70;3.07;;;;;;;19.12;46.39;98448.38;5052322;28;20295;-25
2024/01/26 03:15:51;;;;;;;4.10;3.20;;;;;;;19.12;46.23;98449.28;5051451;28;20270;-25
2024/01/26 03:18:18;;;;;;;3.67;3.10;;;;;;;19.12;46.05;98446.72;5056273;28;20281;-26
2024/01/26 03:20:45;;;;;;;3.37;2.83;;;;;;;19.13;46.33;98450.16;5054643;28;20212;-25
2024/01/26 03:23:12;;;;;;;3.53;2.90;;;;;;;19.13;46.10;98448.47;5062366;28;20705;-25
2024/01/26 03:25:39;;;;;;;3.67;3.00;;;;;;;19.15;46.23;98456.19;5053513;28;20279;-25
2024/01/26 03:28:06;;;;;;;3.03;2.73;;;;;;;19.15;46.33;98451.09;5055813;28;20200;-25
2024/01/26 03:30:33;;;;;;;3.30;3.00;;;;;;;19.14;46.26;98447.69;5053175;28;20236;-25
2024/01/26 03:33:00;;;;;;;3.00;2.70;;;;;;;19.13;46.25;98451.03;5055629;28;20296;-25
2024/01/26 03:35:27;;;;;;;3.90;3.50;;;;;;;19.13;46.28;98445.91;5054363;28;20227;-29
2024/01/26 03:37:54;;;;;;;3.50;2.97;;;;;;;19.13;45.79;98445.06;5057002;28;20215;-26
2024/01/26 03:40:21;;;;;;;3.30;2.80;;;;;;;19.11;46.30;98439.00;5060346;28;20208;-25
2024/01/26 03:42:47;;;;;;;3.30;2.90;;;;;;;19.12;46.21;98441.63;5054024;28;20220;-25
2024/01/26 03:45:14;;;;;;;3.10;2.80;;;;;;;19.12;46.26;98453.47;5061685;28;20227;-25
2024/01/26 03:47:41;;;;;;;3.20;2.90;;;;;;;19.12;46.37;98451.81;5049985;28;20206;-25
2024/01/26 03:50:08;;;;;;;3.17;2.87;;;;;;;19.12;46.19;98459.47;5044507;28;20210;-26
2024/01/26 03:52:34;;;;;;;3.20;2.80;;;;;;;19.12;46.18;98451.81;5045668;28;20202;-25
2024/01/26 03:55:01;;;;;;;3.37;3.07;;;;;;;19.13;46.25;98452.72;5054380;28;20324;-25
2024/01/26 03:57:28;;;;;;;3.53;3.00;;;;;;;19.13;46.13;98455.25;5052676;28;20710;-25
2024/01/26 03:59:54;;;;;;;3.43;2.97;;;;;;;19.13;45.52;98456.13;5058112;28;20775;-26
2024/01/26 04:02:21;;;;;;;3.40;2.97;;;;;;;19.14;46.05;98462.09;5051953;28;20303;-25
2024/01/26 04:04:48;;;;;;;3.20;2.77;;;;;;;19.14;46.19;98457.88;5052502;28;20290;-26
2024/01/26 04:07:14;;;;;;;2.97;2.67;;;;;;;19.13;45.99;98463.75;5050294;28;20614;-26
2024/01/26 04:09:41;;;;;;;2.93;2.63;;;;;;;19.13;46.32;98457.81;5052408;28;20211;-25
2024/01/26 04:12:08;;;;;;;3.30;3.00;;;;;;;19.13;46.14;98462.91;5046731;28;20236;-25
2024/01/26 04:14:34;;;;;;;3.53;2.73;;;;;;;19.12;45.85;98463.66;5051660;28;20244;-25
2024/01/26 04:17:01;;;;;;;3.27;2.97;;;;;;;19.12;46.06;98462.00;5048809;28;20201;-25
2024/01/26 04:19:27;;;;;;;3.33;2.90;;;;;;;19.11;46.34;98452.63;5053119;28;20629;-25
2024/01/26 04:21:54;;;;;;;2.87;2.57;;;;;;;19.12;46.17;98456.91;5060910;28;20205;-26
2024/01/26 04:24:21;;;;;;;3.57;2.97;;;;;;;19.11;46.24;98457.72;5055345;28;20205;-25
2024/01/26 04:26:47;;;;;;;3.30;3.00;;;;;;;19.11;46.30;98452.63;5049287;28;20251;-25
2024/01/26 04:29:14;;;;;;;3.17;2.87;;;;;;;19.12;46.20;98450.94;5045526;28;20205;-26
2024/01/26 04:31:44;;;;;;;2.97;2.67;;;;;;;19.13;46.34;98458.66;5051186;28;20270;-26
2024/01/26 04:34:11;;;;;;;3.10;2.80;;;;;;;19.14;46.27;98455.34;5051380;28;20455;-25
2024/01/26 04:36:37;;;;;;;2.93;2.70;;;;;;;19.14;46.15;98457.00;5050698;28;20229;-25
2024/01/26 04:39:04;;;;;;;3.13;2.83;;;;;;;19.14;46.32;98454.44;5051174;28;20239;-25
2024/01/26 04:41:31;;;;;;;3.17;2.80;;;;;;;19.09;46.39;98443.13;5055521;28;20601;-25
2024/01/26 04:43:57;;;;;;;2.87;2.57;;;;;;;19.14;46.30;98455.34;5051304;28;20224;-25
2024/01/26 04:46:24;;;;;;;3.17;2.90;;;;;;;19.14;46.42;98455.34;5050376;28;20217;-25
2024/01/26 04:48:50;;;;;;;2.80;2.60;;;;;;;19.13;46.18;98458.66;5054248;28;20261;-26
2024/01/26 04:51:17;;;;;;;2.90;2.70;;;;;;;19.13;46.37;98455.25;5057577;28;20216;-26
2024/01/26 04:53:44;;;;;;;2.90;2.70;;;;;;;19.12;46.37;98453.47;5050039;28;20284;-27
2024/01/26 04:56:11;;;;;;;3.47;2.63;;;;;;;19.12;46.32;98464.56;5057274;28;20232;-25
2024/01/26 04:58:38;;;;;;;3.33;2.80;;;;;;;19.11;46.43;98457.72;5046825;28;20283;-27
2024/01/26 05:01:05;;;;;;;3.67;2.80;;;;;;;19.11;46.42;98457.72;5047951;28;20220;-25
2024/01/26 05:03:31;;;;;;;3.00;2.70;;;;;;;19.06;46.37;98448.94;5046645;28;20642;-25
2024/01/26 05:05:58;;;;;;;3.20;2.90;;;;;;;19.12;46.41;98467.13;5044453;28;20311;-25
2024/01/26 05:08:25;;;;;;;2.93;2.70;;;;;;;19.14;46.34;98464.66;5051305;28;20200;-25
2024/01/26 05:10:52;;;;;;;3.43;2.83;;;;;;;19.16;46.20;98460.50;5051467;28;20232;-25
2024/01/26 05:13:18;;;;;;;2.93;2.73;;;;;;;19.18;46.88;98461.44;5050754;28;20198;-26
2024/01/26 05:15:45;;;;;;;3.23;2.60;;;;;;;19.20;46.16;98472.63;5049979;28;20275;-25
2024/01/26 05:18:11;;;;;;;2.73;2.53;;;;;;;19.21;46.24;98471.81;5047747;28;20262;-25
2024/01/26 05:20:38;;;;;;;2.90;2.60;;;;;;;19.21;46.29;98485.44;5046725;28;20731;-25
2024/01/26 05:23:05;;;;;;;2.90;2.67;;;;;;;19.20;46.34;98476.06;5051106;28;20216;-25
2024/01/26 05:25:32;;;;;;;2.87;2.67;;;;;;;19.21;46.35;98476.91;5049140;28;20774;-26
2024/01/26 05:27:58;;;;;;;2.67;2.47;;;;;;;19.22;46.09;98471.88;5047238;28;20255;-26
2024/01/26 05:30:26;;;;;;;3.00;2.70;;;;;;;19.23;46.27;98476.22;5047578;28;20208;-34
2024/01/26 05:32:52;;;;;;;4.37;2.50;;;;;;;19.23;46.16;98472.78;5050916;28;20248;-25
2024/01/26 05:37:47;;;;;;;3.03;2.70;;;;;;;19.25;46.17;98463.56;5008970;28;20210;-24
2024/01/26 05:40:14;;;;;;;4.43;2.70;;;;;;;19.24;46.09;98470.31;5015913;28;20209;-24
2024/01/26 05:42:41;;;;;;;2.93;2.63;;;;;;;19.25;46.21;98473.75;5009999;28;20221;-24
2024/01/26 05:45:08;;;;;;;2.87;2.43;;;;;;;19.25;46.26;98476.28;5011361;28;20230;-24
2024/01/26 05:47:35;;;;;;;3.30;2.80;;;;;;;19.25;46.37;98473.75;5009539;28;20313;-25
2024/01/26 05:50:02;;;;;;;3.93;2.90;;;;;;;19.27;46.51;98472.19;5011178;28;20267;-25
2024/01/26 05:52:29;;;;;;;4.87;3.00;;;;;;;19.27;46.30;98469.66;5010913;28;20267;-24
2024/01/26 05:54:55;;;;;;;5.90;3.20;;;;;;;19.28;46.42;98461.19;5010887;28;20207;-24
2024/01/26 05:57:22;;;;;;;4.90;2.80;;;;;;;19.28;46.48;98466.28;5010698;28;20300;-25
2024/01/26 05:59:49;;;;;;;6.60;3.03;;;;;;;19.27;46.32;98459.47;5011091;28;20209;-24
2024/01/26 06:02:15;;;;;;;4.33;3.17;;;;;;;19.27;46.34;98469.66;5011043;28;20582;-24
2024/01/26 06:04:42;;;;;;;3.00;2.70;;;;;;;19.26;46.41;98467.84;5010828;28;20202;-24
2024/01/26 06:07:08;;;;;;;4.07;2.97;;;;;;;19.25;45.95;98461.00;5011099;28;20229;-24
2024/01/26 06:09:35;;;;;;;3.20;2.90;;;;;;;19.25;46.31;98466.09;5012963;28;20203;-24
2024/01/26 06:12:02;;;;;;;3.47;2.90;;;;;;;19.24;46.44;98465.22;5013343;28;20206;-24
2024/01/26 06:14:29;;;;;;;4.17;3.17;;;;;;;19.23;46.43;98462.59;5013955;28;20237;-23
2024/01/26 06:16:56;;;;;;;3.57;3.00;;;;;;;19.23;46.32;98470.22;5014104;28;20313;-25
2024/01/26 06:19:22;;;;;;;7.13;3.10;;;;;;;19.22;46.56;98464.25;5014760;28;20202;-25
2024/01/26 06:21:49;;;;;;;3.33;2.43;;;;;;;19.23;46.52;98466.03;5014167;28;20316;-25
2024/01/26 06:24:16;;;;;;;4.03;2.97;;;;;;;19.23;46.95;98468.56;5010375;28;20328;-24
2024/01/26 06:26:42;;;;;;;2.87;2.67;;;;;;;19.24;46.07;98459.22;5014411;28;20222;-25
2024/01/26 06:29:09;;;;;;;5.37;3.40;;;;;;;19.23;46.02;98463.47;5014846;28;20229;-25
2024/01/26 06:31:36;;;;;;;4.47;3.00;;;;;;;19.20;46.48;98464.97;5013243;28;20206;-24
2024/01/26 06:34:02;;;;;;;3.50;3.00;;;;;;;19.22;46.61;98476.13;5014135;28;20664;-24
2024/01/26 06:36:29;;;;;;;3.47;3.07;;;;;;;19.22;46.43;98471.88;5014051;28;20262;-25
2024/01/26 06:38:56;;;;;;;4.67;2.93;;;;;;;19.21;46.49;98469.25;5012741;28;20206;-25
2024/01/26 06:41:22;;;;;;;3.20;2.83;;;;;;;19.20;46.54;98467.53;5014212;28;20202;-24
2024/01/26 06:43:51;;;;;;;4.70;3.00;;;;;;;19.20;46.88;98465.84;5014132;28;20300;-25
2024/01/26 06:46:21;;;;;;;3.93;2.97;;;;;;;19.20;47.13;98462.41;5013538;28;20230;-25
2024/01/26 06:48:48;;;;;;;5.47;3.20;;;;;;;19.19;47.37;98456.44;5013116;28;20210;-25
2024/01/26 06:51:15;;;;;;;3.27;2.90;;;;;;;19.17;47.39;98455.50;5013896;28;20218;-24
2024/01/26 06:53:42;;;;;;;3.50;3.20;;;;;;;19.17;46.99;98454.63;5013483;28;20202;-25
2024/01/26 06:56:09;;;;;;;4.00;2.90;;;;;;;19.16;46.73;98456.28;5013149;28;20317;-24
2024/01/26 06:58:35;;;;;;;3.13;2.90;;;;;;;19.16;47.06;98461.38;5012298;28;20677;-24
2024/01/26 07:01:02;;;;;;;2.97;2.77;;;;;;;19.17;47.14;98458.06;5014167;28;20214;-24
2024/01/26 07:03:29;;;;;;;3.13;2.60;;;;;;;19.18;47.43;98464.00;5008676;28;20249;-23
2024/01/26 07:05:56;;;;;;;8.40;3.03;;;;;;;19.18;47.22;98454.69;5009452;28;20226;-26
2024/01/26 07:08:23;;;;;;;3.30;2.93;;;;;;;19.19;46.71;98453.88;5009191;28;20217;-24
2024/01/26 07:10:49;;;;;;;2.70;2.50;;;;;;;19.18;46.94;98452.16;5002332;28;20226;-23
2024/01/26 07:13:16;;;;;;;3.90;2.90;;;;;;;19.21;47.11;98459.06;5010582;28;20202;-23
2024/01/26 07:15:43;;;;;;;5.47;3.00;;;;;;;19.20;47.13;98449.69;5009924;28;20774;-24
2024/01/26 07:18:09;;;;;;;5.83;2.43;;;;;;;19.20;47.15;98449.69;5009874;28;20211;-30
2024/01/26 07:20:36;;;;;;;2.90;2.30;;;;;;;19.19;47.12;98441.16;5008976;28;20237;-24
2024/01/26 07:23:05;;;;;;;4.33;2.33;;;;;;;19.19;47.09;98451.34;5006347;28;20226;-23
2024/01/26 07:25:31;;;;;;;2.90;2.60;;;;;;;19.19;47.37;98458.13;5010646;28;20206;-25
2024/01/26 07:27:58;;;;;;;3.00;2.40;;;;;;;19.20;47.06;98454.78;5010049;28;20206;-24
2024/01/26 07:30:25;;;;;;;3.00;2.50;;;;;;;19.20;47.14;98457.31;5008142;28;20203;-24
2024/01/26 07:32:52;;;;;;;5.17;2.70;;;;;;;19.21;46.75;98459.97;5010641;28;20627;-24
2024/01/26 07:35:18;;;;;;;3.67;2.50;;;;;;;19.23;47.25;98462.59;5010137;28;20202;-24
2024/01/26 07:37:45;;;;;;;2.33;2.13;;;;;;;19.23;47.47;98465.13;5005755;28;20206;-24
2024/01/26 07:40:12;;;;;;;2.77;2.47;;;;;;;19.25;47.39;98471.19;5007139;28;20252;-24
2024/01/26 07:42:39;;;;;;;2.83;2.47;;;;;;;19.25;47.37;98468.66;5009683;28;20267;-24
2024/01/26 07:45:06;;;;;;;2.53;2.30;;;;;;;19.26;47.39;98457.66;5009625;28;20202;-25
2024/01/26 07:47:36;;;;;;;3.13;2.40;;;;;;;19.25;47.33;98458.47;5011849;28;20271;-24
2024/01/26 07:50:03;;;;;;;5.50;2.60;;;;;;;19.24;47.33;98449.91;5008559;28;20205;-24
2024/01/26 07:52:30;;;;;;;3.00;2.23;;;;;;;19.23;47.31;98455.81;5007136;28;20639;-25
2024/01/26 07:54:56;;;;;;;3.43;2.50;;;;;;;19.22;47.32;98448.94;5010166;28;20198;-24
2024/01/26 07:57:25;;;;;;;2.77;2.37;;;;;;;19.22;47.19;98451.50;5011215;28;20222;-23
2024/01/26 07:59:52;;;;;;;5.63;2.43;;;;;;;19.22;47.29;98443.00;5008078;28;20210;-24
2024/01/26 08:02:19;;;;;;;3.67;2.40;;;;;;;19.22;47.27;98437.91;5009565;28;20202;-24
2024/01/26 08:04:46;;;;;;;2.63;2.07;;;;;;;19.22;47.22;98435.34;5008926;28;20219;-25
2024/01/26 08:07:15;;;;;;;3.93;2.10;;;;;;;19.22;47.70;98425.16;5005875;28;20274;-23
2024/01/26 08:09:43;;;;;;;4.27;2.20;;;;;;;19.22;47.26;98428.56;5009728;28;20268;-24
2024/01/26 08:12:10;;;;;;;2.37;2.00;;;;;;;19.22;47.14;98425.16;5008441;28;20580;-23
2024/01/26 08:14:50;;;;;;;2.53;2.17;;;;;;;19.22;47.22;98427.72;5009081;28;20194;-24
2024/01/26 08:17:17;;;;;;;4.17;2.10;;;;;;;19.16;47.36;98412.09;5009201;28;20662;-24
2024/01/26 08:19:44;;;;;;;2.57;1.93;;;;;;;19.23;47.17;98420.16;5011772;28;20203;-24
2024/01/26 08:22:11;;;;;;;3.27;2.00;;;;;;;19.23;47.33;98422.69;5009292;28;20587;-24
2024/01/26 08:24:38;;;;;;;2.83;1.83;;;;;;;19.23;47.09;98427.78;5008493;28;20730;-25
2024/01/26 08:27:05;;;;;;;3.80;2.27;;;;;;;19.22;47.14;98431.13;5006198;28;20696;-24
2024/01/26 08:29:31;;;;;;;2.30;2.10;;;;;;;19.22;47.17;98423.47;5009051;28;20206;-25
2024/01/26 08:31:58;;;;;;;2.47;2.20;;;;;;;19.21;47.01;98419.19;5008190;28;20206;-25
2024/01/26 08:34:25;;;;;;;2.13;1.83;;;;;;;19.22;47.12;98422.63;5007185;28;20284;-24
2024/01/26 08:36:52;;;;;;;2.77;2.00;;;;;;;19.21;47.15;98419.19;5008154;28;20272;-25
2024/01/26 08:39:19;;;;;;;2.47;2.17;;;;;;;19.20;47.10;98409.78;5010665;28;20206;-23
2024/01/26 08:41:46;;;;;;;3.30;2.30;;;;;;;19.21;47.23;98414.09;5009772;28;20612;-24
2024/01/26 08:44:13;;;;;;;2.30;2.10;;;;;;;19.21;47.08;98409.00;5005550;28;20228;-24
2024/01/26 08:46:40;;;;;;;3.30;2.23;;;;;;;19.21;47.15;98403.88;5010415;28;20253;-24
2024/01/26 08:49:07;;;;;;;2.83;2.13;;;;;;;19.22;47.32;98402.22;5009183;28;20210;-24
2024/01/26 08:51:34;;;;;;;2.73;1.83;;;;;;;19.20;47.18;98398.72;5008933;28;20202;-25
2024/01/26 08:54:00;;;;;;;3.17;2.13;;;;;;;19.23;47.13;98403.97;5008521;28;20673;-24
2024/01/26 08:56:27;;;;;;;2.17;1.93;;;;;;;19.24;47.20;98398.06;5010452;28;20502;-24
2024/01/26 08:58:54;;;;;;;4.07;2.00;;;;;;;19.24;47.34;98395.53;5006359;28;20260;-25
2024/01/26 09:01:23;;;;;;;3.07;1.90;;;;;;;19.22;47.31;98385.25;5010987;28;20668;-24
2024/01/26 09:03:50;;;;;;;3.20;1.80;;;;;;;19.23;47.37;98373.38;5006602;28;20356;-23
2024/01/26 09:06:17;;;;;;;2.30;2.10;;;;;;;19.23;47.33;98378.50;5010777;28;20227;-25
2024/01/26 09:08:44;;;;;;;2.57;1.87;;;;;;;19.22;47.53;98374.19;5006307;28;20313;-24
2024/01/26 09:11:11;;;;;;;2.60;2.20;;;;;;;19.22;47.61;98372.50;5008300;28;20657;-24
2024/01/26 09:13:37;;;;;;;2.77;2.13;;;;;;;19.21;47.35;98364.78;5004069;28;20737;-24
2024/01/26 09:16:04;;;;;;;4.53;2.00;;;;;;;19.21;47.33;98360.56;5003478;28;20714;-24
2024/01/26 09:18:31;;;;;;;3.03;2.00;;;;;;;19.21;47.09;98369.88;5006943;28;20562;-24
2024/01/26 09:21:12;;;;;;;2.10;2.00;;;;;;;19.22;47.34;98371.66;5008592;28;21300;-24
2024/01/26 09:23:39;;;;;;;4.23;2.07;;;;;;;19.22;47.27;98377.59;5007478;28;20214;-24
2024/01/26 09:26:06;;;;;;;2.20;1.80;;;;;;;19.23;47.29;98381.91;5006877;28;20228;-24
2024/01/26 09:28:33;;;;;;;2.13;1.87;;;;;;;19.23;47.18;98371.72;5021408;28;20264;-24
2024/01/26 09:31:00;;;;;;;2.20;1.90;;;;;;;19.25;47.01;98374.34;5008688;28;20214;-24
2024/01/26 09:33:27;;;;;;;2.20;2.00;;;;;;;19.24;47.63;98386.22;5001311;28;20241;-24
2024/01/26 09:35:54;;;;;;;2.00;1.80;;;;;;;19.26;47.46;98388.84;5008796;28;21448;-24
2024/01/26 09:38:21;;;;;;;7.17;2.00;;;;;;;19.27;47.83;98381.31;5004344;28;20222;-22
2024/01/26 09:40:48;;;;;;;6.53;2.20;;;;;;;19.30;47.53;98380.63;5007142;28;20214;-24
2024/01/26 09:43:15;;;;;;;6.30;2.43;;;;;;;19.31;47.62;98375.59;5004712;28;20221;-24
2024/01/26 09:45:42;;;;;;;5.60;2.60;;;;;;;19.28;47.96;98366.91;5002660;28;20772;-24
2024/01/26 09:48:09;;;;;;;3.63;1.70;;;;;;;19.20;47.69;98352.84;5021863;28;20249;-23
2024/01/26 09:50:36;;;;;;;7.77;2.27;;;;;;;19.32;47.50;98364.59;5006677;28;20624;-23
2024/01/26 09:53:06;;;;;;;5.20;2.03;;;;;;;19.28;47.58;98354.16;5008186;28;20579;-25
2024/01/26 09:55:33;;;;;;;3.90;1.77;;;;;;;19.33;47.57;98355.28;5004378;28;20222;-24
2024/01/26 09:58:00;;;;;;;3.70;2.07;;;;;;;19.32;47.53;98346.75;4990665;28;20210;-24
2024/01/26 10:00:26;;;;;;;5.87;1.87;;;;;;;19.33;47.42;98333.19;5005255;28;20225;-24
2024/01/26 10:02:53;;;;;;;5.13;2.07;;;;;;;19.34;47.51;98334.97;5006546;28;20296;-24
2024/01/26 10:05:19;;;;;;;4.63;1.93;;;;;;;19.35;47.59;98316.31;5000361;28;20218;-25
2024/01/26 10:07:46;;;;;;;2.67;1.60;;;;;;;19.35;47.10;98315.44;5007502;28;20225;-24
2024/01/26 10:10:13;;;;;;;3.63;1.73;;;;;;;19.37;47.22;98313.84;5007983;28;20293;-24
2024/01/26 10:12:43;;;;;;;10.33;2.00;;;;;;;19.35;47.42;98311.22;5015109;28;20268;-25
2024/01/26 10:15:10;;;;;;;9.47;2.20;;;;;;;19.33;47.52;98311.94;5006999;28;20288;-24
2024/01/26 10:17:37;;;;;;;3.23;1.90;;;;;;;19.33;47.62;98301.75;5003513;28;20241;-25
2024/01/26 10:20:07;;;;;;;5.67;1.90;;;;;;;19.32;47.54;98308.50;5004966;28;20202;-24
2024/01/26 10:22:35;;;;;;;3.43;2.07;;;;;;;19.30;47.94;98299.91;5007829;28;20210;-24
2024/01/26 10:25:03;;;;;;;2.40;2.03;;;;;;;19.28;48.16;98293.88;5007408;28;20238;-24
2024/01/26 10:27:30;;;;;;;2.67;2.03;;;;;;;19.27;48.26;98281.06;5007716;28;20222;-24
2024/01/26 10:30:00;;;;;;;2.50;1.90;;;;;;;19.26;47.93;98276.72;5007465;28;20211;-24
2024/01/26 10:32:28;;;;;;;3.17;1.90;;;;;;;18.91;47.91;98207.81;5014387;28;20199;-24
2024/01/26 10:34:57;;;;;;;2.90;2.17;;;;;;;19.25;47.98;98268.22;5007300;28;20692;-25
2024/01/26 10:37:28;;;;;;;2.13;1.93;;;;;;;19.27;48.62;98261.53;5004478;28;20226;-24
2024/01/26 10:39:56;;;;;;;6.40;2.10;;;;;;;19.28;48.23;98254.78;5006434;28;20216;-25
2024/01/26 10:42:26;;;;;;;3.03;2.03;;;;;;;19.30;48.34;98256.59;5003758;28;20268;-24
2024/01/26 10:44:53;;;;;;;3.23;2.20;;;;;;;19.30;48.31;98248.94;5004171;28;20313;-25
2024/01/26 10:47:21;;;;;;;3.50;1.83;;;;;;;19.32;48.48;98232.06;5006805;28;20574;-24
2024/01/26 10:49:51;;;;;;;3.67;2.13;;;;;;;19.34;49.04;98222.81;5007199;28;20207;-25
2024/01/26 10:52:18;;;;;;;4.43;2.20;;;;;;;19.37;51.06;98214.44;5007047;28;20589;-26
2024/01/26 10:54:47;;;;;;;3.93;2.07;;;;;;;19.37;53.16;98230.63;5006658;28;20280;-24
2024/01/26 10:57:14;;;;;;;5.50;2.23;;;;;;;19.38;53.11;98221.28;5008080;28;20234;-25
2024/01/26 10:59:43;;;;;;;3.03;2.10;;;;;;;19.36;52.59;98203.34;5010550;28;20206;-24
2024/01/26 11:02:12;;;;;;;2.27;1.97;;;;;;;19.32;51.71;98198.94;5011203;28;20249;-24
2024/01/26 11:04:40;;;;;;;2.63;2.13;;;;;;;19.29;51.15;98198.78;5011216;28;20561;-24
2024/01/26 11:07:07;;;;;;;2.47;1.97;;;;;;;18.99;50.77;98138.66;5009732;28;20304;-25
2024/01/26 11:09:38;;;;;;;3.07;1.97;;;;;;;19.22;50.35;98181.38;5010988;28;20286;-24
2024/01/26 11:12:08;;;;;;;2.27;1.97;;;;;;;19.19;50.11;98188.03;5015667;28;20742;-25
2024/01/26 11:14:35;;;;;;;1.60;1.50;;;;;;;19.10;49.85;98178.25;5010678;28;20546;-23
2024/01/26 11:17:09;;;;;;;2.40;1.87;;;;;;;19.14;49.88;98194.56;5012465;28;20237;-25
2024/01/26 11:19:36;;;;;;;2.17;1.80;;;;;;;19.12;49.72;98191.94;5008448;28;20289;-24
2024/01/26 11:22:05;;;;;;;4.17;2.00;;;;;;;19.11;49.61;98199.50;5013205;28;20205;-25
2024/01/26 11:24:33;;;;;;;2.30;1.87;;;;;;;19.09;49.76;98189.25;5007766;28;20222;-24
2024/01/26 11:27:01;;;;;;;2.33;2.00;;;;;;;19.10;49.82;98195.22;5010932;28;20230;-24
2024/01/26 11:29:32;;;;;;;2.33;1.80;;;;;;;19.08;50.23;98181.53;5003738;28;20695;-24
2024/01/26 11:31:59;;;;;;;2.67;1.90;;;;;;;19.08;50.21;98184.06;5011991;28;20297;-23
2024/01/26 11:34:26;;;;;;;2.50;2.10;;;;;;;19.07;50.18;98183.19;5010177;28;20649;-25
2024/01/26 11:37:26;;;;;;;3.70;1.83;;;;;;;19.07;49.78;98179.78;5012479;28;20291;-25